sensor_id;sensor_type;location;lat;lon;timestamp;pressure;altitude;pressure_sealevel;temperature;humidity
7832;BME280;3961;42.058;25.586;2023-03-25T00:00:17;63373.13;;;10.29;100.00
7832;BME280;3961;42.058;25.586;2023-03-25T00:02:44;63354.38;;;10.10;100.00
7832;BME280;3961;42.058;25.586;2023-03-25T00:05:11;63294.38;;;9.58;100.00
7832;BME280;3961;42.058;25.586;2023-03-25T00:07:43;63309.25;;;9.75;100.00
7832;BME280;3961;42.058;25.586;2023-03-25T00:10:10;63332.13;;;9.93;100.00
7832;BME280;3961;42.058;25.586;2023-03-25T00:12:37;63342.03;;;9.97;100.00
7832;BME280;3961;42.058;25.586;2023-03-25T00:15:04;63351.16;;;10.10;100.00
7832;BME280;3961;42.058;25.586;2023-03-25T00:17:30;63350.22;;;10.11;100.00
7832;BME280;3961;42.058;25.586;2023-03-25T00:19:58;63348.50;;;10.10;100.00
7832;BME280;3961;42.058;25.586;2023-03-25T00:22:25;63364.22;;;10.19;100.00
7832;BME280;3961;42.058;25.586;2023-03-25T00:27:26;63355.19;;;10.14;100.00
7832;BME280;3961;42.058;25.586;2023-03-25T00:29:51;63354.38;;;10.10;100.00
7832;BME280;3961;42.058;25.586;2023-03-25T00:32:17;63324.94;;;9.85;100.00
7832;BME280;3961;42.058;25.586;2023-03-25T00:34:45;63278.44;;;9.46;100.00
7832;BME280;3961;42.058;25.586;2023-03-25T00:37:14;63299.22;;;9.64;100.00
7832;BME280;3961;42.058;25.586;2023-03-25T00:39:46;63319.19;;;9.80;100.00
7832;BME280;3961;42.058;25.586;2023-03-25T00:42:16;63294.94;;;9.58;100.00
7832;BME280;3961;42.058;25.586;2023-03-25T00:44:42;63280.75;;;9.48;100.00
7832;BME280;3961;42.058;25.586;2023-03-25T00:47:07;63316.88;;;9.77;100.00
7832;BME280;3961;42.058;25.586;2023-03-25T00:49:33;63336.25;;;9.92;100.00
7832;BME280;3961;42.058;25.586;2023-03-25T00:51:58;63291.16;;;9.57;100.00
7832;BME280;3961;42.058;25.586;2023-03-25T00:54:24;63291.38;;;9.60;100.00
7832;BME280;3961;42.058;25.586;2023-03-25T00:56:51;63302.69;;;9.67;100.00
7832;BME280;3961;42.058;25.586;2023-03-25T00:59:17;63321.72;;;9.84;100.00
7832;BME280;3961;42.058;25.586;2023-03-25T01:01:42;63323.22;;;9.83;100.00
7832;BME280;3961;42.058;25.586;2023-03-25T01:04:10;63319.41;;;9.82;100.00
7832;BME280;3961;42.058;25.586;2023-03-25T01:06:38;63326.34;;;9.88;100.00
7832;BME280;3961;42.058;25.586;2023-03-25T01:09:12;63313.63;;;9.77;100.00
7832;BME280;3961;42.058;25.586;2023-03-25T01:11:39;63309.97;;;9.71;100.00
7832;BME280;3961;42.058;25.586;2023-03-25T01:14:08;63310.78;;;9.74;100.00
7832;BME280;3961;42.058;25.586;2023-03-25T01:16:35;63311.13;;;9.72;100.00
7832;BME280;3961;42.058;25.586;2023-03-25T01:19:01;63286.88;;;9.51;100.00
7832;BME280;3961;42.058;25.586;2023-03-25T01:21:27;63290.34;;;9.54;100.00
7832;BME280;3961;42.058;25.586;2023-03-25T01:23:52;63292.31;;;9.58;100.00
7832;BME280;3961;42.058;25.586;2023-03-25T01:26:18;63281.56;;;9.51;100.00
7832;BME280;3961;42.058;25.586;2023-03-25T01:28:45;63242.13;;;9.14;100.00
7832;BME280;3961;42.058;25.586;2023-03-25T01:31:13;63259.44;;;9.29;100.00
7832;BME280;3961;42.058;25.586;2023-03-25T01:33:40;63226.22;;;9.02;100.00
7832;BME280;3961;42.058;25.586;2023-03-25T01:36:06;63231.19;;;9.04;100.00
7832;BME280;3961;42.058;25.586;2023-03-25T01:38:36;63227.72;;;9.01;100.00
7832;BME280;3961;42.058;25.586;2023-03-25T01:41:02;63190.50;;;8.71;100.00
7832;BME280;3961;42.058;25.586;2023-03-25T01:43:29;63181.63;;;8.61;100.00
7832;BME280;3961;42.058;25.586;2023-03-25T01:45:56;63162.94;;;8.42;100.00
7832;BME280;3961;42.058;25.586;2023-03-25T01:48:27;63174.69;;;8.55;100.00
7832;BME280;3961;42.058;25.586;2023-03-25T01:51:17;63192.56;;;8.70;100.00
7832;BME280;3961;42.058;25.586;2023-03-25T01:53:44;63155.69;;;8.38;100.00
7832;BME280;3961;42.058;25.586;2023-03-25T01:56:15;63182.44;;;8.64;100.00
7832;BME280;3961;42.058;25.586;2023-03-25T01:58:43;63186.13;;;8.69;100.00
7832;BME280;3961;42.058;25.586;2023-03-25T02:01:08;63199.81;;;8.74;100.00
7832;BME280;3961;42.058;25.586;2023-03-25T02:03:39;63191.41;;;8.69;100.00
7832;BME280;3961;42.058;25.586;2023-03-25T02:06:20;63182.19;;;8.61;100.00
7832;BME280;3961;42.058;25.586;2023-03-25T02:08:51;63180.47;;;8.60;100.00
7832;BME280;3961;42.058;25.586;2023-03-25T02:11:18;63174.69;;;8.55;100.00
7832;BME280;3961;42.058;25.586;2023-03-25T02:13:44;63153.16;;;8.33;100.00
7832;BME280;3961;42.058;25.586;2023-03-25T02:16:22;63127.69;;;8.16;100.00
7832;BME280;3961;42.058;25.586;2023-03-25T02:21:39;63156.84;;;8.39;100.00
7832;BME280;3961;42.058;25.586;2023-03-25T02:38:09;63116.84;;;8.01;100.00
7832;BME280;3961;42.058;25.586;2023-03-25T02:41:00;63101.78;;;7.93;100.00
7832;BME280;3961;42.058;25.586;2023-03-25T02:46:17;63103.16;;;7.96;100.00
7832;BME280;3961;42.058;25.586;2023-03-25T02:51:22;63098.56;;;7.92;100.00
7832;BME280;3961;42.058;25.586;2023-03-25T02:53:51;63106.13;;;7.94;100.00
7832;BME280;3961;42.058;25.586;2023-03-25T02:56:19;63054.31;;;7.49;100.00
7832;BME280;3961;42.058;25.586;2023-03-25T02:58:48;63041.34;;;7.39;100.00
7832;BME280;3961;42.058;25.586;2023-03-25T03:01:15;63030.16;;;7.27;100.00
7832;BME280;3961;42.058;25.586;2023-03-25T03:03:41;63027.28;;;7.25;100.00
7832;BME280;3961;42.058;25.586;2023-03-25T03:06:07;63028.44;;;7.26;100.00
7832;BME280;3961;42.058;25.586;2023-03-25T03:11:27;63058.59;;;7.55;100.00
7832;BME280;3961;42.058;25.586;2023-03-25T03:14:12;63057.44;;;7.54;100.00
7832;BME280;3961;42.058;25.586;2023-03-25T03:29:37;63042.34;;;7.33;100.00
7832;BME280;3961;42.058;25.586;2023-03-25T03:32:14;63015.69;;;7.19;100.00
7832;BME280;3961;42.058;25.586;2023-03-25T03:35:10;63006.84;;;7.09;100.00
7832;BME280;3961;42.058;25.586;2023-03-25T03:37:37;63009.47;;;7.09;100.00
7832;BME280;3961;42.058;25.586;2023-03-25T03:40:08;63001.06;;;7.04;100.00
7832;BME280;3961;42.058;25.586;2023-03-25T03:42:44;63024.41;;;7.22;100.00
7832;BME280;3961;42.058;25.586;2023-03-25T03:45:16;63024.06;;;7.24;100.00
7832;BME280;3961;42.058;25.586;2023-03-25T03:47:48;63037.75;;;7.29;100.00
7832;BME280;3961;42.058;25.586;2023-03-25T03:50:28;63012.34;;;7.12;100.00
7832;BME280;3961;42.058;25.586;2023-03-25T03:55:48;63041.09;;;7.37;100.00
7832;BME280;3961;42.058;25.586;2023-03-25T03:58:20;63058.34;;;7.52;100.00
7832;BME280;3961;42.058;25.586;2023-03-25T04:03:21;63055.13;;;7.52;100.00
7832;BME280;3961;42.058;25.586;2023-03-25T04:05:53;63050.06;;;7.43;100.00
7832;BME280;3961;42.058;25.586;2023-03-25T04:08:28;63078.84;;;7.68;100.00
7832;BME280;3961;42.058;25.586;2023-03-25T04:10:57;63041.34;;;7.39;100.00
7832;BME280;3961;42.058;25.586;2023-03-25T04:13:32;63038.47;;;7.37;100.00
7832;BME280;3961;42.058;25.586;2023-03-25T04:15:59;63064.44;;;7.55;100.00
7832;BME280;3961;42.058;25.586;2023-03-25T04:18:25;63037.06;;;7.33;100.00
7832;BME280;3961;42.058;25.586;2023-03-25T04:20:54;62990.16;;;6.94;100.00
7832;BME280;3961;42.058;25.586;2023-03-25T04:23:19;62988.28;;;6.86;100.00
7832;BME280;3961;42.058;25.586;2023-03-25T04:25:45;62974.16;;;6.76;100.00
7832;BME280;3961;42.058;25.586;2023-03-25T04:28:12;62970.38;;;6.74;100.00
7832;BME280;3961;42.058;25.586;2023-03-25T04:30:39;62992.88;;;6.90;100.00
7832;BME280;3961;42.058;25.586;2023-03-25T04:33:05;63008.56;;;7.11;100.00
7832;BME280;3961;42.058;25.586;2023-03-25T04:35:31;63019.72;;;7.23;100.00
7832;BME280;3961;42.058;25.586;2023-03-25T04:37:58;63010.63;;;7.10;100.00
7832;BME280;3961;42.058;25.586;2023-03-25T04:40:24;63030.16;;;7.27;100.00
7832;BME280;3961;42.058;25.586;2023-03-25T04:42:52;63021.19;;;7.22;100.00
7832;BME280;3961;42.058;25.586;2023-03-25T04:45:18;63010.28;;;7.12;100.00
7832;BME280;3961;42.058;25.586;2023-03-25T04:47:47;63054.56;;;7.51;100.00
7832;BME280;3961;42.058;25.586;2023-03-25T04:52:42;63041.69;;;7.37;100.00
7832;BME280;3961;42.058;25.586;2023-03-25T04:55:08;63086.56;;;7.77;100.00
7832;BME280;3961;42.058;25.586;2023-03-25T04:57:35;63039.94;;;7.36;100.00
7832;BME280;3961;42.058;25.586;2023-03-25T05:00:01;63044.31;;;7.37;100.00
7832;BME280;3961;42.058;25.586;2023-03-25T05:02:26;63081.97;;;7.73;100.00
7832;BME280;3961;42.058;25.586;2023-03-25T05:04:52;63097.84;;;7.85;100.00
7832;BME280;3961;42.058;25.586;2023-03-25T05:07:18;63129.84;;;8.11;100.00
7832;BME280;3961;42.058;25.586;2023-03-25T05:09:44;63141.03;;;8.23;100.00
7832;BME280;3961;42.058;25.586;2023-03-25T05:12:09;63142.91;;;8.31;100.00
7832;BME280;3961;42.058;25.586;2023-03-25T05:14:35;63126.53;;;8.15;100.00
7832;BME280;3961;42.058;25.586;2023-03-25T05:17:01;63136.91;;;8.24;100.00
7832;BME280;3961;42.058;25.586;2023-03-25T05:19:26;63104.06;;;7.95;100.00
7832;BME280;3961;42.058;25.586;2023-03-25T05:21:53;63140.69;;;8.25;100.00
7832;BME280;3961;42.058;25.586;2023-03-25T05:24:20;63137.00;;;8.19;100.00
7832;BME280;3961;42.058;25.586;2023-03-25T05:26:46;63177.00;;;8.57;100.00
7832;BME280;3961;42.058;25.586;2023-03-25T05:29:13;63183.34;;;8.62;100.00
7832;BME280;3961;42.058;25.586;2023-03-25T05:31:40;63196.94;;;8.72;100.00
7832;BME280;3961;42.058;25.586;2023-03-25T05:34:06;63208.94;;;8.87;100.00
7832;BME280;3961;42.058;25.586;2023-03-25T05:36:33;63232.91;;;9.06;100.00
7832;BME280;3961;42.058;25.586;2023-03-25T05:38:59;63250.19;;;9.21;100.00
7832;BME280;3961;42.058;25.586;2023-03-25T05:41:27;63267.50;;;9.36;100.00
7832;BME280;3961;42.058;25.586;2023-03-25T05:44:03;63278.69;;;9.49;100.00
7832;BME280;3961;42.058;25.586;2023-03-25T05:46:29;63285.03;;;9.54;100.00
7832;BME280;3961;42.058;25.586;2023-03-25T05:48:54;63290.00;;;9.56;100.00
7832;BME280;3961;42.058;25.586;2023-03-25T05:51:23;63278.22;;;9.43;100.00
7832;BME280;3961;42.058;25.586;2023-03-25T05:53:49;63268.09;;;9.37;100.00
7832;BME280;3961;42.058;25.586;2023-03-25T05:56:15;63299.81;;;9.65;100.00
7832;BME280;3961;42.058;25.586;2023-03-25T05:58:46;63316.53;;;9.80;100.00
7832;BME280;3961;42.058;25.586;2023-03-25T06:01:12;63328.06;;;9.90;100.00
7832;BME280;3961;42.058;25.586;2023-03-25T06:03:39;63351.72;;;10.10;100.00
7832;BME280;3961;42.058;25.586;2023-03-25T06:06:06;63355.88;;;10.09;100.00
7832;BME280;3961;42.058;25.586;2023-03-25T06:08:41;63355.53;;;10.11;100.00
7832;BME280;3961;42.058;25.586;2023-03-25T06:11:08;63374.03;;;10.28;100.00
7832;BME280;3961;42.058;25.586;2023-03-25T06:13:34;63377.16;;;10.33;100.00
7832;BME280;3961;42.058;25.586;2023-03-25T06:16:06;63392.16;;;10.46;99.55
7832;BME280;3961;42.058;25.586;2023-03-25T06:18:33;63376.34;;;10.30;100.00
7832;BME280;3961;42.058;25.586;2023-03-25T06:20:59;63410.66;;;10.62;100.00
7832;BME280;3961;42.058;25.586;2023-03-25T06:23:25;63435.47;;;10.84;97.35
7832;BME280;3961;42.058;25.586;2023-03-25T06:25:52;63405.13;;;10.60;97.56
7832;BME280;3961;42.058;25.586;2023-03-25T06:28:18;63403.47;;;10.54;99.01
7832;BME280;3961;42.058;25.586;2023-03-25T06:30:47;63421.28;;;10.74;97.92
7832;BME280;3961;42.058;25.586;2023-03-25T06:33:14;63425.06;;;10.75;97.41
7832;BME280;3961;42.058;25.586;2023-03-25T06:35:41;63437.22;;;10.86;97.11
7832;BME280;3961;42.058;25.586;2023-03-25T06:38:08;63471.66;;;11.14;96.31
7832;BME280;3961;42.058;25.586;2023-03-25T06:40:35;63452.25;;;10.99;97.16
7832;BME280;3961;42.058;25.586;2023-03-25T06:43:05;63474.53;;;11.16;95.79
7832;BME280;3961;42.058;25.586;2023-03-25T06:45:32;63486.34;;;11.29;95.70
7832;BME280;3961;42.058;25.586;2023-03-25T06:47:58;63511.75;;;11.51;93.38
7832;BME280;3961;42.058;25.586;2023-03-25T06:50:24;63516.97;;;11.56;93.87
7832;BME280;3961;42.058;25.586;2023-03-25T06:52:50;63542.66;;;11.81;92.64
7832;BME280;3961;42.058;25.586;2023-03-25T06:55:15;63545.91;;;11.81;91.47
7832;BME280;3961;42.058;25.586;2023-03-25T06:57:41;63550.53;;;11.85;92.32
7832;BME280;3961;42.058;25.586;2023-03-25T07:00:08;63478.25;;;11.22;95.02
7832;BME280;3961;42.058;25.586;2023-03-25T07:02:34;63527.50;;;11.60;94.13
7832;BME280;3961;42.058;25.586;2023-03-25T07:04:59;63530.63;;;11.65;93.27
7832;BME280;3961;42.058;25.586;2023-03-25T07:07:25;63551.69;;;11.86;92.75
7832;BME280;3961;42.058;25.586;2023-03-25T07:09:53;63549.72;;;11.82;92.76
7832;BME280;3961;42.058;25.586;2023-03-25T07:12:23;63548.78;;;11.84;93.37
7832;BME280;3961;42.058;25.586;2023-03-25T07:14:53;63577.47;;;12.06;93.81
7832;BME280;3961;42.058;25.586;2023-03-25T07:17:20;63584.41;;;12.13;93.01
7832;BME280;3961;42.058;25.586;2023-03-25T07:19:45;63615.31;;;12.42;91.41
7832;BME280;3961;42.058;25.586;2023-03-25T07:22:11;63615.66;;;12.40;91.26
7832;BME280;3961;42.058;25.586;2023-03-25T07:24:37;63660.47;;;12.82;87.61
7832;BME280;3961;42.058;25.586;2023-03-25T07:27:02;63641.59;;;12.67;88.53
7832;BME280;3961;42.058;25.586;2023-03-25T07:29:28;63652.59;;;12.77;89.30
7832;BME280;3961;42.058;25.586;2023-03-25T07:31:53;63680.75;;;12.99;87.03
7832;BME280;3961;42.058;25.586;2023-03-25T07:34:19;63702.75;;;13.19;85.07
7832;BME280;3961;42.058;25.586;2023-03-25T07:36:44;63727.31;;;13.42;85.40
7832;BME280;3961;42.058;25.586;2023-03-25T07:39:10;63723.59;;;13.37;84.14
7832;BME280;3961;42.058;25.586;2023-03-25T07:41:35;63766.84;;;13.72;83.90
7832;BME280;3961;42.058;25.586;2023-03-25T07:44:01;63772.06;;;13.77;81.84
7832;BME280;3961;42.058;25.586;2023-03-25T07:46:27;63821.56;;;14.23;81.25
7832;BME280;3961;42.058;25.586;2023-03-25T07:48:52;63838.13;;;14.35;80.96
7832;BME280;3961;42.058;25.586;2023-03-25T07:51:18;63867.19;;;14.60;79.13
7832;BME280;3961;42.058;25.586;2023-03-25T07:53:44;63880.16;;;14.74;77.73
7832;BME280;3961;42.058;25.586;2023-03-25T07:56:11;63898.16;;;14.90;75.49
7832;BME280;3961;42.058;25.586;2023-03-25T07:58:37;63918.22;;;15.05;74.30
7832;BME280;3961;42.058;25.586;2023-03-25T08:01:03;63955.50;;;15.44;73.06
7832;BME280;3961;42.058;25.586;2023-03-25T08:03:28;63972.47;;;15.55;70.30
7832;BME280;3961;42.058;25.586;2023-03-25T08:05:54;64002.78;;;15.76;70.29
7832;BME280;3961;42.058;25.586;2023-03-25T08:08:20;64032.66;;;16.05;67.83
7832;BME280;3961;42.058;25.586;2023-03-25T08:10:45;64067.88;;;16.33;67.34
7832;BME280;3961;42.058;25.586;2023-03-25T08:13:12;64091.13;;;16.54;65.75
7832;BME280;3961;42.058;25.586;2023-03-25T08:15:39;64026.72;;;16.04;65.66
7832;BME280;3961;42.058;25.586;2023-03-25T08:18:05;64041.72;;;16.10;68.14
7832;BME280;3961;42.058;25.586;2023-03-25T08:20:34;64107.66;;;16.70;65.25
7832;BME280;3961;42.058;25.586;2023-03-25T08:23:00;64147.78;;;17.05;65.76
7832;BME280;3961;42.058;25.586;2023-03-25T08:25:27;64177.66;;;17.34;64.77
7832;BME280;3961;42.058;25.586;2023-03-25T08:27:54;64228.09;;;17.75;62.88
7832;BME280;3961;42.058;25.586;2023-03-25T08:30:20;64215.03;;;17.62;62.52
7832;BME280;3961;42.058;25.586;2023-03-25T08:32:46;64222.84;;;17.71;61.85
7832;BME280;3961;42.058;25.586;2023-03-25T08:35:19;64254.88;;;17.99;60.57
7832;BME280;3961;42.058;25.586;2023-03-25T08:37:46;64267.47;;;18.07;59.90
7832;BME280;3961;42.058;25.586;2023-03-25T08:40:12;64288.88;;;18.31;58.86
7832;BME280;3961;42.058;25.586;2023-03-25T08:42:38;64317.56;;;18.51;59.78
7832;BME280;3961;42.058;25.586;2023-03-25T08:45:04;64278.38;;;18.22;60.92
7832;BME280;3961;42.058;25.586;2023-03-25T08:47:30;64268.28;;;18.10;60.23
7832;BME280;3961;42.058;25.586;2023-03-25T08:49:56;64306.25;;;18.39;60.11
7832;BME280;3961;42.058;25.586;2023-03-25T08:52:22;64283.75;;;18.22;59.64
7832;BME280;3961;42.058;25.586;2023-03-25T08:54:48;64316.00;;;18.52;59.67
7832;BME280;3961;42.058;25.586;2023-03-25T08:57:13;64371.19;;;18.98;59.25
7832;BME280;3961;42.058;25.586;2023-03-25T08:59:39;64373.16;;;19.02;58.81
7832;BME280;3961;42.058;25.586;2023-03-25T09:02:05;64363.38;;;18.89;60.54
7832;BME280;3961;42.058;25.586;2023-03-25T09:04:30;64389.84;;;19.14;59.02
7832;BME280;3961;42.058;25.586;2023-03-25T09:06:56;64437.66;;;19.56;55.82
7832;BME280;3961;42.058;25.586;2023-03-25T09:09:22;64428.91;;;19.48;54.29
7832;BME280;3961;42.058;25.586;2023-03-25T09:11:47;64476.16;;;19.89;54.12
7832;BME280;3961;42.058;25.586;2023-03-25T09:14:13;64500.69;;;20.10;53.36
7832;BME280;3961;42.058;25.586;2023-03-25T09:16:39;64493.31;;;20.06;54.03
7832;BME280;3961;42.058;25.586;2023-03-25T09:19:05;64483.41;;;19.98;53.67
7832;BME280;3961;42.058;25.586;2023-03-25T09:21:31;64524.81;;;20.34;51.76
7832;BME280;3961;42.058;25.586;2023-03-25T09:23:56;64471.72;;;19.88;52.51
7832;BME280;3961;42.058;25.586;2023-03-25T09:26:22;64519.94;;;20.27;51.27
7832;BME280;3961;42.058;25.586;2023-03-25T09:28:47;64506.50;;;20.16;51.99
7832;BME280;3961;42.058;25.586;2023-03-25T09:31:13;64437.88;;;19.58;53.81
7832;BME280;3961;42.058;25.586;2023-03-25T09:33:39;64511.97;;;20.23;53.06
7832;BME280;3961;42.058;25.586;2023-03-25T09:36:05;64556.38;;;20.61;50.41
7832;BME280;3961;42.058;25.586;2023-03-25T09:38:31;64584.16;;;20.83;49.06
7832;BME280;3961;42.058;25.586;2023-03-25T09:40:56;64613.63;;;21.11;48.79
7832;BME280;3961;42.058;25.586;2023-03-25T09:43:37;64614.56;;;21.09;47.03
7832;BME280;3961;42.058;25.586;2023-03-25T09:46:04;64640.28;;;21.32;43.82
7832;BME280;3961;42.058;25.586;2023-03-25T09:48:42;64656.25;;;21.48;44.70
7832;BME280;3961;42.058;25.586;2023-03-25T09:51:17;64644.00;;;21.37;45.25
7832;BME280;3961;42.058;25.586;2023-03-25T09:54:04;64700.47;;;21.84;44.55
7832;BME280;3961;42.058;25.586;2023-03-25T09:56:36;64626.47;;;21.22;46.27
7832;BME280;3961;42.058;25.586;2023-03-25T09:59:07;64653.94;;;21.46;46.31
7832;BME280;3961;42.058;25.586;2023-03-25T10:13:06;64716.16;;;22.02;41.76
7832;BME280;3961;42.058;25.586;2023-03-25T10:24:15;64733.44;;;22.15;40.79
7832;BME280;3961;42.058;25.586;2023-03-25T10:29:18;64762.28;;;22.35;43.67
7832;BME280;3961;42.058;25.586;2023-03-25T10:31:53;64774.97;;;22.51;42.91
7832;BME280;3961;42.058;25.586;2023-03-25T10:34:24;64777.69;;;22.51;43.36
7832;BME280;3961;42.058;25.586;2023-03-25T10:36:53;64794.88;;;22.68;43.07
7832;BME280;3961;42.058;25.586;2023-03-25T10:39:24;64828.25;;;22.97;42.55
7832;BME280;3961;42.058;25.586;2023-03-25T10:41:55;64784.13;;;22.57;42.72
7832;BME280;3961;42.058;25.586;2023-03-25T10:44:24;64761.53;;;22.39;42.48
7832;BME280;3961;42.058;25.586;2023-03-25T10:46:57;64723.09;;;22.01;43.01
7832;BME280;3961;42.058;25.586;2023-03-25T10:49:27;64722.72;;;22.03;43.51
7832;BME280;3961;42.058;25.586;2023-03-25T10:51:54;64711.00;;;21.93;43.36
7832;BME280;3961;42.058;25.586;2023-03-25T10:54:26;64687.47;;;21.77;44.46
7832;BME280;3961;42.058;25.586;2023-03-25T10:56:55;64649.63;;;21.40;44.75
7832;BME280;3961;42.058;25.586;2023-03-25T10:59:25;64669.50;;;21.57;44.85
7832;BME280;3961;42.058;25.586;2023-03-25T11:01:56;64710.41;;;21.93;44.45
7832;BME280;3961;42.058;25.586;2023-03-25T11:04:28;64725.28;;;22.08;44.74
7832;BME280;3961;42.058;25.586;2023-03-25T11:06:56;64779.31;;;22.57;45.07
7832;BME280;3961;42.058;25.586;2023-03-25T11:09:29;64787.84;;;22.62;42.21
7832;BME280;3961;42.058;25.586;2023-03-25T11:12:01;64769.13;;;22.46;42.97
7832;BME280;3961;42.058;25.586;2023-03-25T11:14:29;64759.19;;;22.37;43.66
7832;BME280;3961;42.058;25.586;2023-03-25T11:16:55;64754.88;;;22.31;42.03
7832;BME280;3961;42.058;25.586;2023-03-25T11:19:41;64784.13;;;22.57;41.60
7832;BME280;3961;42.058;25.586;2023-03-25T11:22:21;64835.50;;;23.06;43.27
7832;BME280;3961;42.058;25.586;2023-03-25T11:24:49;64882.47;;;23.42;41.02
7832;BME280;3961;42.058;25.586;2023-03-25T11:27:23;64904.53;;;23.59;40.23
7832;BME280;3961;42.058;25.586;2023-03-25T11:29:51;64891.25;;;23.50;38.18
7832;BME280;3961;42.058;25.586;2023-03-25T11:32:22;64902.41;;;23.59;39.82
7832;BME280;3961;42.058;25.586;2023-03-25T11:34:51;64879.75;;;23.42;39.22
7832;BME280;3961;42.058;25.586;2023-03-25T11:37:19;64879.19;;;23.41;38.07
7832;BME280;3961;42.058;25.586;2023-03-25T11:39:51;64936.38;;;23.89;38.63
7832;BME280;3961;42.058;25.586;2023-03-25T11:44:54;64989.75;;;24.35;36.60
7832;BME280;3961;42.058;25.586;2023-03-25T11:47:39;64998.16;;;24.44;36.93
7832;BME280;3961;42.058;25.586;2023-03-25T11:50:06;64989.94;;;24.37;39.67
7832;BME280;3961;42.058;25.586;2023-03-25T11:52:46;64973.28;;;24.21;37.70
7832;BME280;3961;42.058;25.586;2023-03-25T11:55:24;64983.50;;;24.32;38.84
7832;BME280;3961;42.058;25.586;2023-03-25T11:57:51;64931.09;;;23.84;36.20
7832;BME280;3961;42.058;25.586;2023-03-25T12:05:40;64890.09;;;23.49;36.84
7832;BME280;3961;42.058;25.586;2023-03-25T12:08:16;64916.69;;;23.74;37.44
7832;BME280;3961;42.058;25.586;2023-03-25T12:11:07;64931.69;;;23.85;37.75
7832;BME280;3961;42.058;25.586;2023-03-25T12:16:29;64994.03;;;24.41;37.35
7832;BME280;3961;42.058;25.586;2023-03-25T12:43:14;64842.66;;;23.07;39.98
7832;BME280;3961;42.058;25.586;2023-03-25T13:07:04;64977.84;;;24.29;38.35
7832;BME280;3961;42.058;25.586;2023-03-25T13:12:59;64943.41;;;23.95;39.75
7832;BME280;3961;42.058;25.586;2023-03-25T13:15:36;64978.22;;;24.27;38.01
7832;BME280;3961;42.058;25.586;2023-03-25T13:20:59;65004.00;;;24.50;37.63
7832;BME280;3961;42.058;25.586;2023-03-25T13:23:24;65026.09;;;24.66;37.88
7832;BME280;3961;42.058;25.586;2023-03-25T13:26:12;65011.63;;;24.56;36.60
7832;BME280;3961;42.058;25.586;2023-03-25T13:28:48;65026.09;;;24.66;35.62
7832;BME280;3961;42.058;25.586;2023-03-25T13:31:18;65050.69;;;24.88;36.07
7832;BME280;3961;42.058;25.586;2023-03-25T13:45:04;65052.81;;;24.87;35.58
7832;BME280;3961;42.058;25.586;2023-03-25T13:47:40;65074.97;;;25.11;34.94
7832;BME280;3961;42.058;25.586;2023-03-25T13:50:17;65066.19;;;25.03;34.48
7832;BME280;3961;42.058;25.586;2023-03-25T13:52:49;65048.34;;;24.86;33.85
7832;BME280;3961;42.058;25.586;2023-03-25T13:55:23;65033.09;;;24.72;34.34
7832;BME280;3961;42.058;25.586;2023-03-25T14:11:21;65062.09;;;25.00;35.29
7832;BME280;3961;42.058;25.586;2023-03-25T14:13:56;65070.66;;;25.05;34.29
7832;BME280;3961;42.058;25.586;2023-03-25T14:16:29;65056.19;;;24.95;34.31
7832;BME280;3961;42.058;25.586;2023-03-25T14:19:01;65012.00;;;24.54;35.33
7832;BME280;3961;42.058;25.586;2023-03-25T14:26:59;65045.19;;;24.81;35.52
7832;BME280;3961;42.058;25.586;2023-03-25T14:29:42;65061.88;;;24.97;35.35
7832;BME280;3961;42.058;25.586;2023-03-25T14:34:41;65034.50;;;24.76;35.93
7832;BME280;3961;42.058;25.586;2023-03-25T14:44:39;65022.56;;;24.63;36.12
7832;BME280;3961;42.058;25.586;2023-03-25T14:49:52;64938.13;;;23.90;36.75
7832;BME280;3961;42.058;25.586;2023-03-25T14:52:37;64931.91;;;23.87;36.54
7832;BME280;3961;42.058;25.586;2023-03-25T14:55:08;64944.59;;;23.96;36.06
7832;BME280;3961;42.058;25.586;2023-03-25T14:57:40;64944.38;;;23.93;36.76
7832;BME280;3961;42.058;25.586;2023-03-25T15:00:07;64924.88;;;23.81;36.67
7832;BME280;3961;42.058;25.586;2023-03-25T15:02:41;64937.78;;;23.92;36.21
7832;BME280;3961;42.058;25.586;2023-03-25T15:05:19;64935.44;;;23.90;36.31
7832;BME280;3961;42.058;25.586;2023-03-25T15:07:53;64929.56;;;23.85;36.03
7832;BME280;3961;42.058;25.586;2023-03-25T15:10:44;64902.03;;;23.61;35.77
7832;BME280;3961;42.058;25.586;2023-03-25T15:13:18;64903.38;;;23.58;36.48
7832;BME280;3961;42.058;25.586;2023-03-25T15:21:10;64872.75;;;23.36;37.32
7832;BME280;3961;42.058;25.586;2023-03-25T15:35:08;64830.97;;;22.97;38.66
7832;BME280;3961;42.058;25.586;2023-03-25T15:54:59;64722.72;;;22.03;40.58
7832;BME280;3961;42.058;25.586;2023-03-25T15:57:50;64718.59;;;22.00;41.00
7832;BME280;3961;42.058;25.586;2023-03-25T16:00:37;64718.00;;;21.99;40.87
7832;BME280;3961;42.058;25.586;2023-03-25T16:03:12;64717.44;;;21.99;41.31
7832;BME280;3961;42.058;25.586;2023-03-25T16:05:46;64712.75;;;21.95;41.13
7832;BME280;3961;42.058;25.586;2023-03-25T16:08:33;64703.97;;;21.87;41.19
7832;BME280;3961;42.058;25.586;2023-03-25T16:11:13;64698.72;;;21.83;40.98
7832;BME280;3961;42.058;25.586;2023-03-25T16:13:40;64684.34;;;21.72;41.29
7832;BME280;3961;42.058;25.586;2023-03-25T16:16:06;64662.84;;;21.49;42.38
7832;BME280;3961;42.058;25.586;2023-03-25T16:18:33;64660.13;;;21.49;43.56
7832;BME280;3961;42.058;25.586;2023-03-25T16:21:00;64642.63;;;21.34;45.57
7832;BME280;3961;42.058;25.586;2023-03-25T16:23:28;64619.44;;;21.16;47.80
7832;BME280;3961;42.058;25.586;2023-03-25T16:25:54;64608.34;;;21.06;49.68
7832;BME280;3961;42.058;25.586;2023-03-25T16:28:30;64590.59;;;20.89;51.88
7832;BME280;3961;42.058;25.586;2023-03-25T16:30:56;64587.44;;;20.84;53.12
7832;BME280;3961;42.058;25.586;2023-03-25T16:33:30;64573.09;;;20.73;54.04
7832;BME280;3961;42.058;25.586;2023-03-25T16:35:59;64558.84;;;20.59;55.55
7832;BME280;3961;42.058;25.586;2023-03-25T16:38:26;64547.84;;;20.56;55.93
7832;BME280;3961;42.058;25.586;2023-03-25T16:41:09;64551.69;;;20.57;55.84
7832;BME280;3961;42.058;25.586;2023-03-25T16:43:36;64533.72;;;20.37;56.92
7832;BME280;3961;42.058;25.586;2023-03-25T16:46:03;64501.13;;;20.16;58.40
7832;BME280;3961;42.058;25.586;2023-03-25T16:48:32;64499.16;;;20.11;58.63
7832;BME280;3961;42.058;25.586;2023-03-25T16:51:04;64499.88;;;20.07;59.21